Terminal Aerodrome Forecast
Issued by NWS Grand Forks, ND

Home | Current Version | Previous Version | Graphics & Text | Print | Product List | Glossary On
Versions: 1 2 3 4 5 6 7 8 9 10 11 12 13 14 15 16 17 18 19 20
733
FTUS43 KFGF 231130 AAA
TAFFAR
TAF AMD
KFAR 231130Z 2312/2412 33011KT P6SM OVC009
     FM231600 35011KT P6SM OVC010
     FM231800 35010KT P6SM VCTS OVC015CB
     FM232200 02010KT P6SM VCSH OVC015
     FM241000 02008KT 5SM -RA OVC003=

USA.gov is the U.S. government's official web portal to all federal, state and local government web resources and services.